sensor_id;sensor_type;location;lat;lon;timestamp;temperature;humidity
15328;DHT22;7764;51.430;6.840;2024-01-15T00:02:09;2.30;99.90
15328;DHT22;7764;51.430;6.840;2024-01-15T00:04:39;2.30;99.90
15328;DHT22;7764;51.430;6.840;2024-01-15T00:07:06;2.30;99.90
15328;DHT22;7764;51.430;6.840;2024-01-15T00:09:33;2.30;99.90
15328;DHT22;7764;51.430;6.840;2024-01-15T00:12:02;2.20;99.90
15328;DHT22;7764;51.430;6.840;2024-01-15T00:14:29;2.30;99.90
15328;DHT22;7764;51.430;6.840;2024-01-15T00:16:55;2.30;99.90
15328;DHT22;7764;51.430;6.840;2024-01-15T00:19:22;2.30;99.90
15328;DHT22;7764;51.430;6.840;2024-01-15T00:21:49;2.30;99.90
15328;DHT22;7764;51.430;6.840;2024-01-15T00:24:16;2.30;99.90
15328;DHT22;7764;51.430;6.840;2024-01-15T00:26:43;2.40;99.90
15328;DHT22;7764;51.430;6.840;2024-01-15T00:29:11;2.30;99.90
15328;DHT22;7764;51.430;6.840;2024-01-15T00:31:38;2.40;99.90
15328;DHT22;7764;51.430;6.840;2024-01-15T00:34:04;2.30;99.90
15328;DHT22;7764;51.430;6.840;2024-01-15T00:36:32;2.30;99.90
15328;DHT22;7764;51.430;6.840;2024-01-15T00:38:58;2.40;99.90
15328;DHT22;7764;51.430;6.840;2024-01-15T00:41:25;2.30;99.90
15328;DHT22;7764;51.430;6.840;2024-01-15T00:43:53;2.40;99.90
15328;DHT22;7764;51.430;6.840;2024-01-15T00:46:21;2.40;99.90
15328;DHT22;7764;51.430;6.840;2024-01-15T00:48:48;2.40;99.90
15328;DHT22;7764;51.430;6.840;2024-01-15T00:51:15;2.40;99.90
15328;DHT22;7764;51.430;6.840;2024-01-15T00:53:41;2.30;99.90
15328;DHT22;7764;51.430;6.840;2024-01-15T00:56:08;2.40;99.90
15328;DHT22;7764;51.430;6.840;2024-01-15T00:58:35;2.40;99.90
15328;DHT22;7764;51.430;6.840;2024-01-15T01:01:02;2.40;99.90
15328;DHT22;7764;51.430;6.840;2024-01-15T01:03:30;2.40;99.90
15328;DHT22;7764;51.430;6.840;2024-01-15T01:05:57;2.40;99.90
15328;DHT22;7764;51.430;6.840;2024-01-15T01:08:24;2.40;99.90
15328;DHT22;7764;51.430;6.840;2024-01-15T01:10:50;2.40;99.90
15328;DHT22;7764;51.430;6.840;2024-01-15T01:13:17;2.40;99.90
15328;DHT22;7764;51.430;6.840;2024-01-15T01:15:44;2.40;99.90
15328;DHT22;7764;51.430;6.840;2024-01-15T01:18:11;2.40;99.90
15328;DHT22;7764;51.430;6.840;2024-01-15T01:20:39;2.40;99.90
15328;DHT22;7764;51.430;6.840;2024-01-15T01:23:06;2.40;99.90
15328;DHT22;7764;51.430;6.840;2024-01-15T01:25:33;2.50;99.90
15328;DHT22;7764;51.430;6.840;2024-01-15T01:28:00;2.50;99.90
15328;DHT22;7764;51.430;6.840;2024-01-15T01:30:26;2.50;99.90
15328;DHT22;7764;51.430;6.840;2024-01-15T01:32:53;2.50;99.90
15328;DHT22;7764;51.430;6.840;2024-01-15T01:35:20;2.40;99.90
15328;DHT22;7764;51.430;6.840;2024-01-15T01:37:48;2.50;99.90
15328;DHT22;7764;51.430;6.840;2024-01-15T01:40:15;2.50;99.90
15328;DHT22;7764;51.430;6.840;2024-01-15T01:42:42;2.40;99.90
15328;DHT22;7764;51.430;6.840;2024-01-15T01:45:09;2.40;99.90
15328;DHT22;7764;51.430;6.840;2024-01-15T01:47:37;2.40;99.90
15328;DHT22;7764;51.430;6.840;2024-01-15T01:50:05;2.40;99.90
15328;DHT22;7764;51.430;6.840;2024-01-15T01:52:33;2.50;99.90
15328;DHT22;7764;51.430;6.840;2024-01-15T01:55:02;2.40;99.90
15328;DHT22;7764;51.430;6.840;2024-01-15T01:57:30;2.40;99.90
15328;DHT22;7764;51.430;6.840;2024-01-15T01:59:58;2.40;99.90
15328;DHT22;7764;51.430;6.840;2024-01-15T02:02:25;2.40;99.90
15328;DHT22;7764;51.430;6.840;2024-01-15T02:04:52;2.50;99.90
15328;DHT22;7764;51.430;6.840;2024-01-15T02:07:19;2.50;99.90
15328;DHT22;7764;51.430;6.840;2024-01-15T02:09:47;2.40;99.90
15328;DHT22;7764;51.430;6.840;2024-01-15T02:12:15;2.40;99.90
15328;DHT22;7764;51.430;6.840;2024-01-15T02:14:42;2.50;99.90
15328;DHT22;7764;51.430;6.840;2024-01-15T02:17:09;2.50;99.90
15328;DHT22;7764;51.430;6.840;2024-01-15T02:19:36;2.50;99.90
15328;DHT22;7764;51.430;6.840;2024-01-15T02:22:03;2.50;99.90
15328;DHT22;7764;51.430;6.840;2024-01-15T02:24:31;2.40;99.90
15328;DHT22;7764;51.430;6.840;2024-01-15T02:26:58;2.50;99.90
15328;DHT22;7764;51.430;6.840;2024-01-15T02:29:24;2.50;99.90
15328;DHT22;7764;51.430;6.840;2024-01-15T02:31:51;2.50;99.90
15328;DHT22;7764;51.430;6.840;2024-01-15T02:34:18;2.60;99.90
15328;DHT22;7764;51.430;6.840;2024-01-15T02:36:45;2.50;99.90
15328;DHT22;7764;51.430;6.840;2024-01-15T02:39:12;2.50;99.90
15328;DHT22;7764;51.430;6.840;2024-01-15T02:41:40;2.50;99.90
15328;DHT22;7764;51.430;6.840;2024-01-15T02:44:07;2.60;99.90
15328;DHT22;7764;51.430;6.840;2024-01-15T02:46:33;2.60;99.90
15328;DHT22;7764;51.430;6.840;2024-01-15T02:49:00;2.60;99.90
15328;DHT22;7764;51.430;6.840;2024-01-15T02:51:27;2.60;99.90
15328;DHT22;7764;51.430;6.840;2024-01-15T02:53:54;2.60;99.90
15328;DHT22;7764;51.430;6.840;2024-01-15T02:56:20;2.60;99.90
15328;DHT22;7764;51.430;6.840;2024-01-15T02:58:49;2.60;99.90
15328;DHT22;7764;51.430;6.840;2024-01-15T03:01:18;2.60;99.90
15328;DHT22;7764;51.430;6.840;2024-01-15T03:03:45;2.60;99.90
15328;DHT22;7764;51.430;6.840;2024-01-15T03:06:12;2.60;99.90
15328;DHT22;7764;51.430;6.840;2024-01-15T03:08:38;2.60;99.90
15328;DHT22;7764;51.430;6.840;2024-01-15T03:11:05;2.60;99.90
15328;DHT22;7764;51.430;6.840;2024-01-15T03:13:35;2.60;99.90
15328;DHT22;7764;51.430;6.840;2024-01-15T03:16:04;2.60;99.90
15328;DHT22;7764;51.430;6.840;2024-01-15T03:18:31;2.60;99.90
15328;DHT22;7764;51.430;6.840;2024-01-15T03:20:58;2.60;99.90
15328;DHT22;7764;51.430;6.840;2024-01-15T03:23:26;2.50;99.90
15328;DHT22;7764;51.430;6.840;2024-01-15T03:25:53;2.50;99.90
15328;DHT22;7764;51.430;6.840;2024-01-15T03:28:20;2.60;99.90
15328;DHT22;7764;51.430;6.840;2024-01-15T03:30:47;2.60;99.90
15328;DHT22;7764;51.430;6.840;2024-01-15T03:33:15;2.60;99.90
15328;DHT22;7764;51.430;6.840;2024-01-15T03:35:41;2.60;99.90
15328;DHT22;7764;51.430;6.840;2024-01-15T03:38:08;2.70;99.90
15328;DHT22;7764;51.430;6.840;2024-01-15T03:40:35;2.60;99.90
15328;DHT22;7764;51.430;6.840;2024-01-15T03:43:02;2.60;99.90
15328;DHT22;7764;51.430;6.840;2024-01-15T03:45:29;2.60;99.90
15328;DHT22;7764;51.430;6.840;2024-01-15T03:47:56;2.60;99.90
15328;DHT22;7764;51.430;6.840;2024-01-15T03:50:24;2.60;99.90
15328;DHT22;7764;51.430;6.840;2024-01-15T03:52:51;2.60;99.90
15328;DHT22;7764;51.430;6.840;2024-01-15T03:55:17;2.60;99.90
15328;DHT22;7764;51.430;6.840;2024-01-15T03:57:44;2.60;99.90
15328;DHT22;7764;51.430;6.840;2024-01-15T04:00:12;2.60;99.90
15328;DHT22;7764;51.430;6.840;2024-01-15T04:02:39;2.60;99.90
15328;DHT22;7764;51.430;6.840;2024-01-15T04:05:06;2.60;99.90
15328;DHT22;7764;51.430;6.840;2024-01-15T04:07:34;2.60;99.90
15328;DHT22;7764;51.430;6.840;2024-01-15T04:10:01;2.60;99.90
15328;DHT22;7764;51.430;6.840;2024-01-15T04:12:28;2.60;99.90
15328;DHT22;7764;51.430;6.840;2024-01-15T04:14:55;2.60;99.90
15328;DHT22;7764;51.430;6.840;2024-01-15T04:17:22;2.60;99.90
15328;DHT22;7764;51.430;6.840;2024-01-15T04:19:48;2.60;99.90
15328;DHT22;7764;51.430;6.840;2024-01-15T04:22:15;2.60;99.90
15328;DHT22;7764;51.430;6.840;2024-01-15T04:24:43;2.60;99.90
15328;DHT22;7764;51.430;6.840;2024-01-15T04:27:10;2.60;99.90
15328;DHT22;7764;51.430;6.840;2024-01-15T04:29:37;2.60;99.90
15328;DHT22;7764;51.430;6.840;2024-01-15T04:32:05;2.50;99.90
15328;DHT22;7764;51.430;6.840;2024-01-15T04:34:31;2.50;99.90
15328;DHT22;7764;51.430;6.840;2024-01-15T04:36:58;2.50;99.90
15328;DHT22;7764;51.430;6.840;2024-01-15T04:39:25;2.60;99.90
15328;DHT22;7764;51.430;6.840;2024-01-15T04:41:53;2.50;99.90
15328;DHT22;7764;51.430;6.840;2024-01-15T04:44:19;2.50;99.90
15328;DHT22;7764;51.430;6.840;2024-01-15T04:46:46;2.60;99.90
15328;DHT22;7764;51.430;6.840;2024-01-15T04:49:13;2.60;99.90
15328;DHT22;7764;51.430;6.840;2024-01-15T04:51:40;2.60;99.90
15328;DHT22;7764;51.430;6.840;2024-01-15T04:54:07;2.60;99.90
15328;DHT22;7764;51.430;6.840;2024-01-15T04:56:33;2.60;99.90
15328;DHT22;7764;51.430;6.840;2024-01-15T04:59:02;2.60;99.90
15328;DHT22;7764;51.430;6.840;2024-01-15T05:01:31;2.50;99.90
15328;DHT22;7764;51.430;6.840;2024-01-15T05:03:58;2.50;99.90
15328;DHT22;7764;51.430;6.840;2024-01-15T05:06:24;2.50;99.90
15328;DHT22;7764;51.430;6.840;2024-01-15T05:08:51;2.50;99.90
15328;DHT22;7764;51.430;6.840;2024-01-15T05:11:18;2.60;99.90
15328;DHT22;7764;51.430;6.840;2024-01-15T05:13:45;2.50;99.90
15328;DHT22;7764;51.430;6.840;2024-01-15T05:16:13;2.50;99.90
15328;DHT22;7764;51.430;6.840;2024-01-15T05:18:40;2.50;99.90
15328;DHT22;7764;51.430;6.840;2024-01-15T05:21:07;2.50;99.90
15328;DHT22;7764;51.430;6.840;2024-01-15T05:23:34;2.60;99.90
15328;DHT22;7764;51.430;6.840;2024-01-15T05:26:01;2.60;99.90
15328;DHT22;7764;51.430;6.840;2024-01-15T05:28:28;2.60;99.90
15328;DHT22;7764;51.430;6.840;2024-01-15T05:30:55;2.50;99.90
15328;DHT22;7764;51.430;6.840;2024-01-15T05:33:23;2.50;99.90
15328;DHT22;7764;51.430;6.840;2024-01-15T05:35:50;2.50;99.90
15328;DHT22;7764;51.430;6.840;2024-01-15T05:38:17;2.60;99.90
15328;DHT22;7764;51.430;6.840;2024-01-15T05:40:44;2.60;99.90
15328;DHT22;7764;51.430;6.840;2024-01-15T05:43:11;2.60;99.90
15328;DHT22;7764;51.430;6.840;2024-01-15T05:45:38;2.60;99.90
15328;DHT22;7764;51.430;6.840;2024-01-15T05:48:05;2.60;99.90
15328;DHT22;7764;51.430;6.840;2024-01-15T05:50:33;2.60;99.90
15328;DHT22;7764;51.430;6.840;2024-01-15T05:53:00;2.70;99.90
15328;DHT22;7764;51.430;6.840;2024-01-15T05:55:28;2.70;99.90
15328;DHT22;7764;51.430;6.840;2024-01-15T05:57:55;2.70;99.90
15328;DHT22;7764;51.430;6.840;2024-01-15T06:00:21;2.70;99.90
15328;DHT22;7764;51.430;6.840;2024-01-15T06:02:48;2.70;99.90
15328;DHT22;7764;51.430;6.840;2024-01-15T06:05:15;2.70;99.90
15328;DHT22;7764;51.430;6.840;2024-01-15T06:07:43;2.80;99.90
15328;DHT22;7764;51.430;6.840;2024-01-15T06:10:10;2.80;99.90
15328;DHT22;7764;51.430;6.840;2024-01-15T06:12:37;2.80;99.90
15328;DHT22;7764;51.430;6.840;2024-01-15T06:15:05;2.80;99.90
15328;DHT22;7764;51.430;6.840;2024-01-15T06:17:32;2.80;99.90
15328;DHT22;7764;51.430;6.840;2024-01-15T06:19:58;2.80;99.90
15328;DHT22;7764;51.430;6.840;2024-01-15T06:22:25;2.80;99.90
15328;DHT22;7764;51.430;6.840;2024-01-15T06:24:53;2.80;99.90
15328;DHT22;7764;51.430;6.840;2024-01-15T06:27:20;2.80;99.90
15328;DHT22;7764;51.430;6.840;2024-01-15T06:29:47;2.80;99.90
15328;DHT22;7764;51.430;6.840;2024-01-15T06:32:14;2.90;99.90
15328;DHT22;7764;51.430;6.840;2024-01-15T06:34:41;2.80;99.90
15328;DHT22;7764;51.430;6.840;2024-01-15T06:37:08;2.80;99.90
15328;DHT22;7764;51.430;6.840;2024-01-15T06:39:35;2.80;99.90
15328;DHT22;7764;51.430;6.840;2024-01-15T06:42:03;2.90;99.90
15328;DHT22;7764;51.430;6.840;2024-01-15T06:44:30;2.90;99.90
15328;DHT22;7764;51.430;6.840;2024-01-15T06:46:57;3.00;99.90
15328;DHT22;7764;51.430;6.840;2024-01-15T06:49:28;2.80;99.90
15328;DHT22;7764;51.430;6.840;2024-01-15T06:51:55;2.80;99.90
15328;DHT22;7764;51.430;6.840;2024-01-15T06:54:22;2.80;99.90
15328;DHT22;7764;51.430;6.840;2024-01-15T06:56:49;2.80;99.90
15328;DHT22;7764;51.430;6.840;2024-01-15T06:59:17;2.80;99.90
15328;DHT22;7764;51.430;6.840;2024-01-15T07:01:44;2.90;99.90
15328;DHT22;7764;51.430;6.840;2024-01-15T07:04:11;2.80;99.90
15328;DHT22;7764;51.430;6.840;2024-01-15T07:06:38;2.90;99.90
15328;DHT22;7764;51.430;6.840;2024-01-15T07:09:05;2.80;99.90
15328;DHT22;7764;51.430;6.840;2024-01-15T07:11:33;2.90;99.90
15328;DHT22;7764;51.430;6.840;2024-01-15T07:14:00;2.90;99.90
15328;DHT22;7764;51.430;6.840;2024-01-15T07:16:28;2.90;99.90
15328;DHT22;7764;51.430;6.840;2024-01-15T07:18:55;2.90;99.90
15328;DHT22;7764;51.430;6.840;2024-01-15T07:21:22;2.90;99.90
15328;DHT22;7764;51.430;6.840;2024-01-15T07:23:49;2.90;99.90
15328;DHT22;7764;51.430;6.840;2024-01-15T07:26:15;2.80;99.90
15328;DHT22;7764;51.430;6.840;2024-01-15T07:28:42;2.90;99.90
15328;DHT22;7764;51.430;6.840;2024-01-15T07:31:09;2.90;99.90
15328;DHT22;7764;51.430;6.840;2024-01-15T07:33:37;2.80;99.90
15328;DHT22;7764;51.430;6.840;2024-01-15T07:36:04;2.80;99.90
15328;DHT22;7764;51.430;6.840;2024-01-15T07:38:32;2.80;99.90
15328;DHT22;7764;51.430;6.840;2024-01-15T07:40:58;2.80;99.90
15328;DHT22;7764;51.430;6.840;2024-01-15T07:43:26;2.80;99.90
15328;DHT22;7764;51.430;6.840;2024-01-15T07:45:53;2.80;99.90
15328;DHT22;7764;51.430;6.840;2024-01-15T07:48:20;2.80;99.90
15328;DHT22;7764;51.430;6.840;2024-01-15T07:50:48;2.80;99.90
15328;DHT22;7764;51.430;6.840;2024-01-15T07:53:15;2.70;99.90
15328;DHT22;7764;51.430;6.840;2024-01-15T07:55:42;2.80;99.90
15328;DHT22;7764;51.430;6.840;2024-01-15T07:58:09;2.70;99.90
15328;DHT22;7764;51.430;6.840;2024-01-15T08:00:35;2.70;99.90
15328;DHT22;7764;51.430;6.840;2024-01-15T08:03:05;2.70;99.90
15328;DHT22;7764;51.430;6.840;2024-01-15T08:05:32;2.70;99.90
15328;DHT22;7764;51.430;6.840;2024-01-15T08:08:03;2.70;99.90
15328;DHT22;7764;51.430;6.840;2024-01-15T08:10:30;2.60;99.90
15328;DHT22;7764;51.430;6.840;2024-01-15T08:12:56;2.60;99.90
15328;DHT22;7764;51.430;6.840;2024-01-15T08:15:24;2.60;99.90
15328;DHT22;7764;51.430;6.840;2024-01-15T08:17:51;2.50;99.90
15328;DHT22;7764;51.430;6.840;2024-01-15T08:20:20;2.50;99.90
15328;DHT22;7764;51.430;6.840;2024-01-15T08:22:47;2.40;99.90
15328;DHT22;7764;51.430;6.840;2024-01-15T08:25:16;2.40;99.90
15328;DHT22;7764;51.430;6.840;2024-01-15T08:27:43;2.40;99.90
15328;DHT22;7764;51.430;6.840;2024-01-15T08:30:11;2.40;99.90
15328;DHT22;7764;51.430;6.840;2024-01-15T08:32:38;2.40;99.90
15328;DHT22;7764;51.430;6.840;2024-01-15T08:35:08;2.40;99.90
15328;DHT22;7764;51.430;6.840;2024-01-15T08:37:38;2.50;99.90
15328;DHT22;7764;51.430;6.840;2024-01-15T08:40:05;2.50;99.90
15328;DHT22;7764;51.430;6.840;2024-01-15T08:42:34;2.60;99.90
15328;DHT22;7764;51.430;6.840;2024-01-15T08:45:01;2.60;99.90
15328;DHT22;7764;51.430;6.840;2024-01-15T08:47:28;2.50;99.90
15328;DHT22;7764;51.430;6.840;2024-01-15T08:49:54;2.30;99.90
15328;DHT22;7764;51.430;6.840;2024-01-15T08:52:21;2.40;99.90
15328;DHT22;7764;51.430;6.840;2024-01-15T08:54:49;2.30;99.90
15328;DHT22;7764;51.430;6.840;2024-01-15T08:57:18;2.30;99.90
15328;DHT22;7764;51.430;6.840;2024-01-15T08:59:52;2.40;99.90
15328;DHT22;7764;51.430;6.840;2024-01-15T09:02:19;2.30;99.90
15328;DHT22;7764;51.430;6.840;2024-01-15T09:04:47;2.20;99.90
15328;DHT22;7764;51.430;6.840;2024-01-15T09:07:14;2.10;99.90
15328;DHT22;7764;51.430;6.840;2024-01-15T09:09:41;2.10;99.90
15328;DHT22;7764;51.430;6.840;2024-01-15T09:12:08;2.20;99.90
15328;DHT22;7764;51.430;6.840;2024-01-15T09:14:35;2.20;99.90
15328;DHT22;7764;51.430;6.840;2024-01-15T09:17:04;2.10;99.90
15328;DHT22;7764;51.430;6.840;2024-01-15T09:19:31;2.20;99.90
15328;DHT22;7764;51.430;6.840;2024-01-15T09:21:58;2.20;99.90
15328;DHT22;7764;51.430;6.840;2024-01-15T09:24:25;2.30;99.90
15328;DHT22;7764;51.430;6.840;2024-01-15T09:26:53;2.20;99.90
15328;DHT22;7764;51.430;6.840;2024-01-15T09:29:20;2.30;99.90
15328;DHT22;7764;51.430;6.840;2024-01-15T09:31:49;2.40;99.90
15328;DHT22;7764;51.430;6.840;2024-01-15T09:34:18;2.50;99.90
15328;DHT22;7764;51.430;6.840;2024-01-15T09:36:45;2.50;99.90
15328;DHT22;7764;51.430;6.840;2024-01-15T09:39:11;2.50;99.90
15328;DHT22;7764;51.430;6.840;2024-01-15T09:41:38;2.50;99.90
15328;DHT22;7764;51.430;6.840;2024-01-15T09:44:07;2.50;99.90
15328;DHT22;7764;51.430;6.840;2024-01-15T09:46:37;2.40;99.90
15328;DHT22;7764;51.430;6.840;2024-01-15T09:49:05;2.40;99.90
15328;DHT22;7764;51.430;6.840;2024-01-15T09:51:34;2.40;99.90
15328;DHT22;7764;51.430;6.840;2024-01-15T09:54:02;2.50;99.90
15328;DHT22;7764;51.430;6.840;2024-01-15T09:56:31;2.60;99.90
15328;DHT22;7764;51.430;6.840;2024-01-15T09:58:58;2.60;99.90
15328;DHT22;7764;51.430;6.840;2024-01-15T10:01:25;2.70;99.90
15328;DHT22;7764;51.430;6.840;2024-01-15T10:03:52;2.60;99.90
15328;DHT22;7764;51.430;6.840;2024-01-15T10:06:22;2.60;99.90
15328;DHT22;7764;51.430;6.840;2024-01-15T10:08:51;2.70;99.90
15328;DHT22;7764;51.430;6.840;2024-01-15T10:11:20;2.60;99.90
15328;DHT22;7764;51.430;6.840;2024-01-15T10:13:47;2.70;99.90
15328;DHT22;7764;51.430;6.840;2024-01-15T10:16:17;2.60;99.90
15328;DHT22;7764;51.430;6.840;2024-01-15T10:18:44;2.60;99.90
15328;DHT22;7764;51.430;6.840;2024-01-15T10:21:11;2.60;99.90
15328;DHT22;7764;51.430;6.840;2024-01-15T10:23:39;2.70;99.90
15328;DHT22;7764;51.430;6.840;2024-01-15T10:26:07;2.60;99.90
15328;DHT22;7764;51.430;6.840;2024-01-15T10:28:36;2.70;99.90
15328;DHT22;7764;51.430;6.840;2024-01-15T10:31:03;2.80;99.90
15328;DHT22;7764;51.430;6.840;2024-01-15T10:33:31;2.80;99.90
15328;DHT22;7764;51.430;6.840;2024-01-15T10:36:01;2.80;99.90
15328;DHT22;7764;51.430;6.840;2024-01-15T10:38:28;2.80;99.90
15328;DHT22;7764;51.430;6.840;2024-01-15T10:40:57;2.80;99.90
15328;DHT22;7764;51.430;6.840;2024-01-15T10:43:25;2.90;99.90
15328;DHT22;7764;51.430;6.840;2024-01-15T10:45:52;2.90;99.90
15328;DHT22;7764;51.430;6.840;2024-01-15T10:48:22;2.90;99.90
15328;DHT22;7764;51.430;6.840;2024-01-15T10:50:48;2.90;99.90
15328;DHT22;7764;51.430;6.840;2024-01-15T10:53:16;2.80;99.90
15328;DHT22;7764;51.430;6.840;2024-01-15T10:55:43;2.80;99.90
15328;DHT22;7764;51.430;6.840;2024-01-15T10:58:11;2.80;99.90
15328;DHT22;7764;51.430;6.840;2024-01-15T11:00:41;2.90;99.90
15328;DHT22;7764;51.430;6.840;2024-01-15T11:03:09;3.00;99.90
15328;DHT22;7764;51.430;6.840;2024-01-15T11:05:37;2.80;99.90
15328;DHT22;7764;51.430;6.840;2024-01-15T11:08:06;2.80;99.90
15328;DHT22;7764;51.430;6.840;2024-01-15T11:10:44;2.90;99.90
15328;DHT22;7764;51.430;6.840;2024-01-15T11:13:18;3.00;99.90
15328;DHT22;7764;51.430;6.840;2024-01-15T11:16:01;3.00;99.90
15328;DHT22;7764;51.430;6.840;2024-01-15T11:18:29;3.10;99.90
15328;DHT22;7764;51.430;6.840;2024-01-15T11:21:21;3.20;99.90
15328;DHT22;7764;51.430;6.840;2024-01-15T11:23:52;3.20;99.90
15328;DHT22;7764;51.430;6.840;2024-01-15T11:26:34;3.20;99.90
15328;DHT22;7764;51.430;6.840;2024-01-15T11:29:03;3.20;99.90
15328;DHT22;7764;51.430;6.840;2024-01-15T11:32:06;3.00;99.90
15328;DHT22;7764;51.430;6.840;2024-01-15T11:34:58;3.10;99.90
15328;DHT22;7764;51.430;6.840;2024-01-15T11:37:28;3.10;99.90
15328;DHT22;7764;51.430;6.840;2024-01-15T11:39:56;3.20;99.90
15328;DHT22;7764;51.430;6.840;2024-01-15T11:42:29;3.40;99.90
15328;DHT22;7764;51.430;6.840;2024-01-15T11:44:57;3.20;99.90
15328;DHT22;7764;51.430;6.840;2024-01-15T11:47:57;3.30;99.90
15328;DHT22;7764;51.430;6.840;2024-01-15T11:50:31;3.20;99.90
15328;DHT22;7764;51.430;6.840;2024-01-15T11:53:00;3.30;99.90
15328;DHT22;7764;51.430;6.840;2024-01-15T11:55:30;3.30;99.90
15328;DHT22;7764;51.430;6.840;2024-01-15T11:58:01;3.00;99.90
15328;DHT22;7764;51.430;6.840;2024-01-15T12:00:29;3.00;99.90
15328;DHT22;7764;51.430;6.840;2024-01-15T12:02:58;3.20;99.90
15328;DHT22;7764;51.430;6.840;2024-01-15T12:05:29;3.00;99.90
15328;DHT22;7764;51.430;6.840;2024-01-15T12:07:56;3.20;99.90
15328;DHT22;7764;51.430;6.840;2024-01-15T12:10:23;3.30;99.90
15328;DHT22;7764;51.430;6.840;2024-01-15T12:12:59;3.40;99.90
15328;DHT22;7764;51.430;6.840;2024-01-15T12:15:28;3.40;99.90
15328;DHT22;7764;51.430;6.840;2024-01-15T12:17:58;3.40;99.90
15328;DHT22;7764;51.430;6.840;2024-01-15T12:20:26;3.30;99.90
15328;DHT22;7764;51.430;6.840;2024-01-15T12:22:53;3.40;99.90
15328;DHT22;7764;51.430;6.840;2024-01-15T12:25:21;3.70;99.90
15328;DHT22;7764;51.430;6.840;2024-01-15T12:27:48;3.80;99.90
15328;DHT22;7764;51.430;6.840;2024-01-15T12:30:15;4.10;99.90
15328;DHT22;7764;51.430;6.840;2024-01-15T12:32:42;3.90;99.90
15328;DHT22;7764;51.430;6.840;2024-01-15T12:35:11;3.80;99.90
15328;DHT22;7764;51.430;6.840;2024-01-15T12:37:41;3.80;99.90
15328;DHT22;7764;51.430;6.840;2024-01-15T12:40:10;3.90;99.90
15328;DHT22;7764;51.430;6.840;2024-01-15T12:42:37;4.10;99.90
15328;DHT22;7764;51.430;6.840;2024-01-15T12:45:06;4.10;99.90
15328;DHT22;7764;51.430;6.840;2024-01-15T12:47:34;4.00;99.90
15328;DHT22;7764;51.430;6.840;2024-01-15T12:50:00;3.90;99.90
15328;DHT22;7764;51.430;6.840;2024-01-15T12:52:30;4.00;99.90
15328;DHT22;7764;51.430;6.840;2024-01-15T12:54:57;3.90;99.90
15328;DHT22;7764;51.430;6.840;2024-01-15T12:57:24;4.00;99.90
15328;DHT22;7764;51.430;6.840;2024-01-15T12:59:54;3.80;99.90
15328;DHT22;7764;51.430;6.840;2024-01-15T13:02:21;3.90;99.90
15328;DHT22;7764;51.430;6.840;2024-01-15T13:04:48;3.70;99.90
15328;DHT22;7764;51.430;6.840;2024-01-15T13:07:16;3.80;99.90
15328;DHT22;7764;51.430;6.840;2024-01-15T13:09:45;3.70;99.90
15328;DHT22;7764;51.430;6.840;2024-01-15T13:12:12;3.70;99.90
15328;DHT22;7764;51.430;6.840;2024-01-15T13:14:41;3.70;99.90
15328;DHT22;7764;51.430;6.840;2024-01-15T13:17:09;3.70;99.90
15328;DHT22;7764;51.430;6.840;2024-01-15T13:19:36;3.90;99.90
15328;DHT22;7764;51.430;6.840;2024-01-15T13:22:04;3.80;99.90
15328;DHT22;7764;51.430;6.840;2024-01-15T13:24:32;3.80;99.90
15328;DHT22;7764;51.430;6.840;2024-01-15T13:27:00;3.70;99.90
15328;DHT22;7764;51.430;6.840;2024-01-15T13:29:27;3.80;99.90
15328;DHT22;7764;51.430;6.840;2024-01-15T13:31:54;3.80;99.90
15328;DHT22;7764;51.430;6.840;2024-01-15T13:34:21;3.80;99.90
15328;DHT22;7764;51.430;6.840;2024-01-15T13:36:48;4.00;99.90
15328;DHT22;7764;51.430;6.840;2024-01-15T13:39:15;3.60;99.90
15328;DHT22;7764;51.430;6.840;2024-01-15T13:41:48;3.60;99.90
15328;DHT22;7764;51.430;6.840;2024-01-15T13:44:19;3.80;99.90
15328;DHT22;7764;51.430;6.840;2024-01-15T13:46:45;3.80;99.90
15328;DHT22;7764;51.430;6.840;2024-01-15T13:49:12;3.80;99.90
15328;DHT22;7764;51.430;6.840;2024-01-15T13:51:40;3.70;99.90
15328;DHT22;7764;51.430;6.840;2024-01-15T13:54:07;3.60;99.90
15328;DHT22;7764;51.430;6.840;2024-01-15T13:56:34;3.70;99.90
15328;DHT22;7764;51.430;6.840;2024-01-15T13:59:01;3.80;99.90
15328;DHT22;7764;51.430;6.840;2024-01-15T14:01:31;3.60;99.90
15328;DHT22;7764;51.430;6.840;2024-01-15T14:03:58;3.80;99.90
15328;DHT22;7764;51.430;6.840;2024-01-15T14:06:25;3.70;99.90
15328;DHT22;7764;51.430;6.840;2024-01-15T14:08:52;3.70;99.90
15328;DHT22;7764;51.430;6.840;2024-01-15T14:11:19;3.50;99.90
15328;DHT22;7764;51.430;6.840;2024-01-15T14:13:46;3.80;99.90
15328;DHT22;7764;51.430;6.840;2024-01-15T14:16:13;3.70;99.90
15328;DHT22;7764;51.430;6.840;2024-01-15T14:18:42;3.70;99.90
15328;DHT22;7764;51.430;6.840;2024-01-15T14:21:09;3.40;99.90
15328;DHT22;7764;51.430;6.840;2024-01-15T14:23:36;3.50;99.90
15328;DHT22;7764;51.430;6.840;2024-01-15T14:26:03;3.50;99.90
15328;DHT22;7764;51.430;6.840;2024-01-15T14:28:30;3.50;99.90
15328;DHT22;7764;51.430;6.840;2024-01-15T14:30:57;3.40;99.90
15328;DHT22;7764;51.430;6.840;2024-01-15T14:33:25;3.50;99.90
15328;DHT22;7764;51.430;6.840;2024-01-15T14:35:54;3.70;99.90
15328;DHT22;7764;51.430;6.840;2024-01-15T14:38:20;3.70;99.90
15328;DHT22;7764;51.430;6.840;2024-01-15T14:40:50;3.60;99.90
15328;DHT22;7764;51.430;6.840;2024-01-15T14:43:17;3.30;99.90
15328;DHT22;7764;51.430;6.840;2024-01-15T14:45:47;3.60;99.90
15328;DHT22;7764;51.430;6.840;2024-01-15T14:48:13;3.30;99.90
15328;DHT22;7764;51.430;6.840;2024-01-15T14:50:40;3.60;99.90
15328;DHT22;7764;51.430;6.840;2024-01-15T14:53:09;3.60;99.90
15328;DHT22;7764;51.430;6.840;2024-01-15T14:55:35;3.40;99.90
15328;DHT22;7764;51.430;6.840;2024-01-15T14:58:05;3.50;99.90
15328;DHT22;7764;51.430;6.840;2024-01-15T15:00:32;3.70;99.90
15328;DHT22;7764;51.430;6.840;2024-01-15T15:02:59;3.50;99.90
15328;DHT22;7764;51.430;6.840;2024-01-15T15:05:26;3.40;99.90
15328;DHT22;7764;51.430;6.840;2024-01-15T15:07:54;3.30;99.90
15328;DHT22;7764;51.430;6.840;2024-01-15T15:10:22;3.50;99.90
15328;DHT22;7764;51.430;6.840;2024-01-15T15:12:50;3.40;99.90
15328;DHT22;7764;51.430;6.840;2024-01-15T15:15:17;3.40;99.90
15328;DHT22;7764;51.430;6.840;2024-01-15T15:17:44;3.40;99.90
15328;DHT22;7764;51.430;6.840;2024-01-15T15:20:11;3.10;99.90
15328;DHT22;7764;51.430;6.840;2024-01-15T15:22:38;3.20;99.90
15328;DHT22;7764;51.430;6.840;2024-01-15T15:25:05;3.30;99.90
15328;DHT22;7764;51.430;6.840;2024-01-15T15:27:35;3.30;99.90
15328;DHT22;7764;51.430;6.840;2024-01-15T15:30:03;3.00;99.90
15328;DHT22;7764;51.430;6.840;2024-01-15T15:32:30;3.10;99.90
15328;DHT22;7764;51.430;6.840;2024-01-15T15:34:57;3.00;99.90
15328;DHT22;7764;51.430;6.840;2024-01-15T15:37:25;2.90;99.90
15328;DHT22;7764;51.430;6.840;2024-01-15T15:39:52;3.20;99.90
15328;DHT22;7764;51.430;6.840;2024-01-15T15:42:19;3.20;99.90
15328;DHT22;7764;51.430;6.840;2024-01-15T15:44:47;2.90;99.90
15328;DHT22;7764;51.430;6.840;2024-01-15T15:47:14;2.90;99.90
15328;DHT22;7764;51.430;6.840;2024-01-15T15:49:42;3.00;99.90
15328;DHT22;7764;51.430;6.840;2024-01-15T15:52:09;2.80;99.90
15328;DHT22;7764;51.430;6.840;2024-01-15T15:54:36;3.00;99.90
15328;DHT22;7764;51.430;6.840;2024-01-15T15:57:03;2.80;99.90
15328;DHT22;7764;51.430;6.840;2024-01-15T15:59:30;2.80;99.90
15328;DHT22;7764;51.430;6.840;2024-01-15T16:01:59;3.00;99.90
15328;DHT22;7764;51.430;6.840;2024-01-15T16:04:25;2.90;99.90
15328;DHT22;7764;51.430;6.840;2024-01-15T16:06:52;2.70;99.90